Time;durP1;ratioP1;P1;durP2;ratioP2;P2;SDS_P1;SDS_P2;PMS_P1;PMS_P2;Temp;Humidity;BMP_temperature;BMP_pressure;BME280_temperature;BME280_humidity;BME280_pressure;Samples;Min_cycle;Max_cycle;Signal;HPM_P1;HPM_P2
2022/09/17 00:00:17;;;;;;;18.92;2.75;;;12.20;99.90;;;;;;5021968;28;20056;-78
2022/09/17 00:02:44;;;;;;;23.23;3.35;;;12.40;99.90;;;;;;5023655;28;20029;-79
2022/09/17 00:05:11;;;;;;;19.20;3.10;;;12.40;99.90;;;;;;5008516;28;20051;-76
2022/09/17 00:07:36;;;;;;;21.75;3.20;;;12.40;99.90;;;;;;5023023;28;20037;-78
2022/09/17 00:10:02;;;;;;;22.08;3.20;;;12.30;99.90;;;;;;5023549;28;20098;-79
2022/09/17 00:12:29;;;;;;;12.73;1.95;;;12.30;99.90;;;;;;5024854;28;20090;-76
2022/09/17 00:14:55;;;;;;;13.95;2.33;;;12.30;99.90;;;;;;5026951;28;20107;-77
2022/09/17 00:17:20;;;;;;;14.05;2.13;;;12.30;99.90;;;;;;5020127;28;20522;-77
2022/09/17 00:19:46;;;;;;;16.52;2.20;;;12.20;99.90;;;;;;5021500;28;20072;-80
2022/09/17 00:22:12;;;;;;;8.55;2.25;;;12.40;99.90;;;;;;5001873;28;20060;-79
2022/09/17 00:24:38;;;;;;;13.20;2.40;;;12.40;99.90;;;;;;5011349;28;20495;-79
2022/09/17 00:27:04;;;;;;;9.32;1.67;;;12.20;99.90;;;;;;5024251;28;20032;-79
2022/09/17 00:29:29;;;;;;;10.45;2.15;;;12.00;99.90;;;;;;5004715;28;20555;-78
2022/09/17 00:31:55;;;;;;;15.52;2.50;;;11.80;99.90;;;;;;5003030;28;20036;-77
2022/09/17 00:34:21;;;;;;;13.60;2.33;;;11.60;99.90;;;;;;5007625;28;20058;-79
2022/09/17 00:36:46;;;;;;;18.70;2.40;;;11.50;99.90;;;;;;5005047;28;20180;-76
2022/09/17 00:39:14;;;;;;;25.30;2.88;;;11.50;99.90;;;;;;5027425;28;20195;-78
2022/09/17 00:41:41;;;;;;;19.95;3.10;;;11.40;99.90;;;;;;5007022;28;20583;-78
2022/09/17 00:44:39;;;;;;;17.30;3.10;;;11.40;99.90;;;;;;5025408;28;20364;-77
2022/09/17 00:47:17;;;;;;;18.42;2.97;;;11.30;99.90;;;;;;5013148;28;20426;-76
2022/09/17 00:49:44;;;;;;;21.23;3.33;;;11.30;99.90;;;;;;5008753;28;20380;-77
2022/09/17 00:52:14;;;;;;;20.88;2.63;;;11.30;99.90;;;;;;5031658;28;21764;-77
2022/09/17 00:54:45;;;;;;;23.30;3.65;;;11.40;99.90;;;;;;5018925;28;20072;-79
2022/09/17 00:57:11;;;;;;;25.60;4.28;;;11.50;99.90;;;;;;5024183;28;20049;-77
2022/09/17 00:59:37;;;;;;;31.10;4.03;;;11.40;99.90;;;;;;5029400;28;20098;-77
2022/09/17 01:02:03;;;;;;;25.60;3.65;;;11.30;99.90;;;;;;5022471;28;20037;-79
2022/09/17 01:04:29;;;;;;;21.08;3.53;;;11.40;99.90;;;;;;5024145;28;20035;-78
2022/09/17 01:07:20;;;;;;;25.40;3.70;;;11.40;99.90;;;;;;5026526;28;20407;-77
2022/09/17 01:10:05;;;;;;;25.42;3.20;;;11.40;99.90;;;;;;5024020;28;20045;-78
2022/09/17 01:12:54;;;;;;;21.83;2.70;;;11.40;99.90;;;;;;4964319;28;20055;-80
2022/09/17 01:15:31;;;;;;;22.20;3.22;;;11.40;99.90;;;;;;4945477;28;20192;-77
2022/09/17 01:18:07;;;;;;;23.33;3.15;;;11.40;99.90;;;;;;4961473;28;20065;-78
2022/09/17 01:20:51;;;;;;;21.63;3.35;;;11.50;99.90;;;;;;4982737;28;20069;-77
2022/09/17 01:23:54;;;;;;;22.98;3.20;;;11.50;99.90;;;;;;4969124;28;20137;-77
2022/09/17 01:26:48;;;;;;;18.40;2.53;;;11.50;99.90;;;;;;4983124;28;20113;-76
2022/09/17 01:29:32;;;;;;;25.90;2.90;;;11.70;99.90;;;;;;4951130;28;20039;-79
2022/09/17 01:32:37;;;;;;;24.25;3.03;;;11.60;99.90;;;;;;4967229;28;20059;-79
2022/09/17 01:35:18;;;;;;;23.58;2.83;;;11.70;99.90;;;;;;4911741;29;20086;-77
2022/09/17 01:37:58;;;;;;;21.23;3.08;;;11.80;99.90;;;;;;4911300;29;20066;-77
2022/09/17 01:40:46;;;;;;;18.83;2.90;;;11.80;99.90;;;;;;4911962;29;20086;-76
2022/09/17 01:43:20;;;;;;;19.90;3.13;;;11.80;99.90;;;;;;4908837;29;20051;-78
2022/09/17 01:45:59;;;;;;;22.52;3.55;;;11.80;99.90;;;;;;4907957;29;20051;-77
2022/09/17 01:48:30;;;;;;;19.65;3.65;;;11.80;99.90;;;;;;4911653;29;20491;-78
2022/09/17 01:51:09;;;;;;;22.02;2.63;;;11.60;99.90;;;;;;4948853;28;20490;-77
2022/09/17 01:54:05;;;;;;;21.15;3.13;;;11.80;99.90;;;;;;4968428;28;20055;-76
2022/09/17 01:56:46;;;;;;;20.00;3.03;;;11.70;99.90;;;;;;4959006;28;20209;-76
2022/09/17 01:59:17;;;;;;;21.00;3.20;;;11.80;99.90;;;;;;4949191;28;20133;-76
2022/09/17 02:01:47;;;;;;;22.90;3.10;;;11.80;99.90;;;;;;4959425;28;20042;-77
2022/09/17 02:04:27;;;;;;;16.48;3.03;;;11.80;99.90;;;;;;4978721;28;20047;-79
2022/09/17 02:07:02;;;;;;;18.65;2.85;;;11.90;99.90;;;;;;4966744;28;20121;-77
2022/09/17 02:09:43;;;;;;;14.93;2.70;;;11.80;99.90;;;;;;4980892;28;20034;-77
2022/09/17 02:12:14;;;;;;;19.25;3.17;;;11.80;99.90;;;;;;5024404;28;20441;-78
2022/09/17 02:14:52;;;;;;;18.65;3.08;;;11.80;99.90;;;;;;5028949;28;20438;-77
2022/09/17 02:17:28;;;;;;;14.93;2.60;;;11.70;99.90;;;;;;5024184;28;20045;-80
2022/09/17 02:19:55;;;;;;;19.25;2.97;;;11.80;99.90;;;;;;5026023;28;20056;-77
2022/09/17 02:23:03;;;;;;;19.83;2.63;;;11.80;99.90;;;;;;5002726;28;20049;-78
2022/09/17 02:26:01;;;;;;;9.18;2.15;;;11.80;99.90;;;;;;4910910;29;20453;-79
2022/09/17 02:28:38;;;;;;;23.77;2.38;;;12.10;99.90;;;;;;4921701;29;20055;-77
2022/09/17 02:31:04;;;;;;;17.42;2.55;;;11.90;99.90;;;;;;4920306;29;20066;-77
2022/09/17 02:33:32;;;;;;;17.33;2.35;;;11.70;99.90;;;;;;4909249;29;20098;-77
2022/09/17 02:35:57;;;;;;;15.38;2.42;;;11.60;99.90;;;;;;4925820;29;20135;-77
2022/09/17 02:38:28;;;;;;;19.00;2.78;;;11.50;99.90;;;;;;4918005;29;20130;-78
2022/09/17 02:41:04;;;;;;;20.25;3.03;;;11.50;99.90;;;;;;4917873;29;20043;-77
2022/09/17 02:43:48;;;;;;;18.05;3.20;;;11.40;99.90;;;;;;4906330;29;20054;-77
2022/09/17 02:46:25;;;;;;;18.50;2.55;;;11.40;99.90;;;;;;4919957;29;20042;-78
2022/09/17 02:49:01;;;;;;;22.63;2.67;;;11.50;99.90;;;;;;4928559;29;20138;-79
2022/09/17 02:51:55;;;;;;;25.33;3.33;;;11.40;99.90;;;;;;4923489;29;20051;-79
2022/09/17 02:54:34;;;;;;;25.45;2.97;;;11.30;99.90;;;;;;4932286;29;20051;-79
2022/09/17 02:57:39;;;;;;;17.02;3.15;;;11.30;99.90;;;;;;4928878;29;20043;-78
2022/09/17 03:00:27;;;;;;;14.10;2.35;;;11.30;99.90;;;;;;4930136;28;20717;-77
2022/09/17 03:03:16;;;;;;;24.88;2.80;;;11.30;99.90;;;;;;5006944;28;20082;-77
2022/09/17 03:05:44;;;;;;;25.35;2.85;;;11.20;99.90;;;;;;5023615;28;20041;-79
2022/09/17 03:08:13;;;;;;;24.77;3.42;;;11.20;99.90;;;;;;5023012;28;20048;-78
2022/09/17 03:10:40;;;;;;;28.13;2.92;;;11.10;99.90;;;;;;5008548;28;20449;-80
2022/09/17 03:13:06;;;;;;;13.55;2.83;;;11.00;99.90;;;;;;5021598;28;20369;-79
2022/09/17 03:15:31;;;;;;;32.85;3.28;;;10.90;99.90;;;;;;5025412;28;20044;-78
2022/09/17 03:17:57;;;;;;;23.27;3.13;;;10.90;99.90;;;;;;5009396;28;20068;-79
2022/09/17 03:20:23;;;;;;;16.95;2.50;;;10.80;99.90;;;;;;5023912;28;20447;-80
2022/09/17 03:22:51;;;;;;;16.23;2.63;;;10.90;99.90;;;;;;5022771;28;20045;-80
2022/09/17 03:25:16;;;;;;;16.05;2.33;;;10.90;99.90;;;;;;5019612;28;20049;-78
2022/09/17 03:27:42;;;;;;;17.75;2.63;;;10.90;99.90;;;;;;5026659;28;20541;-77
2022/09/17 03:30:08;;;;;;;8.73;1.58;;;11.10;99.90;;;;;;5026289;28;20449;-79
2022/09/17 03:32:34;;;;;;;9.02;1.40;;;11.20;99.90;;;;;;5022362;28;20511;-80
2022/09/17 03:35:00;;;;;;;11.02;2.13;;;11.20;99.90;;;;;;5019239;28;20041;-79
2022/09/17 03:37:26;;;;;;;14.13;2.25;;;11.30;99.90;;;;;;5023438;28;20127;-79
2022/09/17 03:39:51;;;;;;;19.05;2.55;;;11.30;99.90;;;;;;5019225;28;20131;-78
2022/09/17 03:42:17;;;;;;;17.83;2.20;;;11.40;99.90;;;;;;5017603;28;20053;-78
2022/09/17 03:44:43;;;;;;;18.33;2.08;;;11.30;99.90;;;;;;5018516;28;20033;-77
2022/09/17 03:47:08;;;;;;;18.27;2.65;;;11.30;99.90;;;;;;5008233;28;20365;-79
2022/09/17 03:49:34;;;;;;;14.93;2.60;;;11.20;99.90;;;;;;5002186;28;20076;-78
2022/09/17 03:52:00;;;;;;;12.85;2.50;;;11.10;99.90;;;;;;5011109;28;20045;-77
2022/09/17 03:54:27;;;;;;;16.17;2.92;;;11.00;99.90;;;;;;5005141;28;20558;-78
2022/09/17 03:56:52;;;;;;;17.67;2.83;;;11.00;99.90;;;;;;5005701;28;20068;-78
2022/09/17 03:59:18;;;;;;;18.45;2.42;;;10.90;99.90;;;;;;5024848;28;20075;-79
2022/09/17 04:01:43;;;;;;;15.63;2.40;;;10.80;99.90;;;;;;5027379;28;20029;-80
2022/09/17 04:04:09;;;;;;;22.65;3.15;;;10.70;99.90;;;;;;5027680;28;20052;-77
2022/09/17 04:06:35;;;;;;;18.95;2.20;;;10.70;99.90;;;;;;5021732;28;20515;-78
2022/09/17 04:09:02;;;;;;;17.50;2.40;;;10.70;99.90;;;;;;5004823;28;20626;-79
2022/09/17 04:11:28;;;;;;;19.35;2.42;;;10.60;99.90;;;;;;5022309;28;20037;-80
2022/09/17 04:13:54;;;;;;;21.77;2.60;;;10.50;99.90;;;;;;5020066;28;20546;-77
2022/09/17 04:16:19;;;;;;;18.30;2.85;;;10.40;99.90;;;;;;5019721;28;20037;-78
2022/09/17 04:18:45;;;;;;;18.98;2.72;;;10.40;99.90;;;;;;5004467;28;20652;-78
2022/09/17 04:21:10;;;;;;;17.27;2.45;;;10.30;99.90;;;;;;5018473;28;20205;-79
2022/09/17 04:23:36;;;;;;;17.55;2.42;;;10.30;99.90;;;;;;5021374;28;20091;-78
2022/09/17 04:26:02;;;;;;;19.42;2.47;;;10.30;99.90;;;;;;5026758;28;20044;-80
2022/09/17 04:28:27;;;;;;;21.55;2.80;;;10.20;99.90;;;;;;5020305;28;20037;-76
2022/09/17 04:30:53;;;;;;;18.95;2.90;;;10.20;99.90;;;;;;5003816;28;20041;-80
2022/09/17 04:33:19;;;;;;;28.30;2.58;;;10.20;99.90;;;;;;5020867;28;20053;-79
2022/09/17 04:35:44;;;;;;;16.35;2.55;;;10.10;99.90;;;;;;5023751;28;20476;-78
2022/09/17 04:38:12;;;;;;;19.60;2.72;;;10.10;99.90;;;;;;4989556;28;20485;-78
2022/09/17 04:40:41;;;;;;;28.45;2.85;;;10.00;99.90;;;;;;5004842;28;20055;-78
2022/09/17 04:43:09;;;;;;;15.57;2.28;;;10.10;99.90;;;;;;5021028;28;20044;-77
2022/09/17 04:45:35;;;;;;;18.15;2.72;;;10.00;99.90;;;;;;5023154;28;20068;-76
2022/09/17 04:48:01;;;;;;;16.77;2.55;;;9.90;99.90;;;;;;5007793;28;20464;-77
2022/09/17 04:50:26;;;;;;;15.63;2.50;;;9.90;99.90;;;;;;5023392;28;20051;-78
2022/09/17 04:52:52;;;;;;;22.55;2.58;;;9.80;99.90;;;;;;5026981;28;20033;-78
2022/09/17 04:55:18;;;;;;;20.05;2.42;;;9.80;99.90;;;;;;5021657;28;20061;-77
2022/09/17 04:57:48;;;;;;;19.75;2.85;;;9.70;99.90;;;;;;5023124;28;20052;-78
2022/09/17 05:00:16;;;;;;;24.83;3.20;;;9.70;99.90;;;;;;5018024;28;20060;-78
2022/09/17 05:02:48;;;;;;;21.15;3.03;;;9.70;99.90;;;;;;5022001;28;20037;-78
2022/09/17 05:05:15;;;;;;;18.38;2.10;;;9.80;99.90;;;;;;5020203;28;20056;-77
2022/09/17 05:07:41;;;;;;;16.23;2.03;;;9.90;99.90;;;;;;5023394;28;20072;-78
2022/09/17 05:10:08;;;;;;;17.90;2.42;;;10.00;99.90;;;;;;5001641;28;20150;-79
2022/09/17 05:12:34;;;;;;;18.85;2.38;;;10.20;99.90;;;;;;5003440;28;20045;-79
2022/09/17 05:15:01;;;;;;;15.38;2.00;;;10.40;99.90;;;;;;5027411;28;20064;-78
2022/09/17 05:17:27;;;;;;;17.65;2.10;;;10.60;99.90;;;;;;5010751;28;20045;-77
2022/09/17 05:19:52;;;;;;;16.77;2.33;;;10.70;99.90;;;;;;5026840;28;20037;-81
2022/09/17 05:22:19;;;;;;;15.57;2.53;;;11.00;99.90;;;;;;5022508;28;20076;-77
2022/09/17 05:24:44;;;;;;;16.20;2.60;;;11.00;99.90;;;;;;5025220;28;20055;-79
2022/09/17 05:27:10;;;;;;;10.70;1.77;;;11.10;99.90;;;;;;4986025;28;20036;-77
2022/09/17 05:29:36;;;;;;;20.38;2.10;;;11.30;99.90;;;;;;5012514;28;20024;-79
2022/09/17 05:32:03;;;;;;;20.48;2.33;;;11.20;99.90;;;;;;5042249;28;20503;-80
2022/09/17 05:34:29;;;;;;;17.40;2.40;;;11.40;99.90;;;;;;5015282;28;20144;-80
2022/09/17 05:36:54;;;;;;;15.32;2.30;;;11.50;99.90;;;;;;5023990;28;23433;-79
2022/09/17 05:39:24;;;;;;;27.65;3.20;;;11.60;99.90;;;;;;5021122;28;20127;-77
2022/09/17 05:41:52;;;;;;;16.42;2.25;;;11.60;99.90;;;;;;5019236;28;20041;-76
2022/09/17 05:44:18;;;;;;;18.75;2.75;;;11.50;99.90;;;;;;5005850;28;20400;-79
2022/09/17 05:46:45;;;;;;;17.33;2.65;;;11.50;99.90;;;;;;5039165;28;20138;-78
2022/09/17 05:49:11;;;;;;;16.85;2.15;;;11.40;99.90;;;;;;5023601;28;20060;-78
2022/09/17 05:51:37;;;;;;;15.68;2.00;;;11.30;99.90;;;;;;5001858;28;20053;-78
2022/09/17 05:54:03;;;;;;;12.65;1.83;;;11.30;99.90;;;;;;5024728;28;20045;-77
2022/09/17 05:56:28;;;;;;;15.43;1.80;;;11.20;99.90;;;;;;5009235;28;20049;-81
2022/09/17 05:58:55;;;;;;;7.38;1.27;;;11.20;99.90;;;;;;5005859;28;20377;-75
2022/09/17 06:01:21;;;;;;;7.70;1.30;;;11.00;99.90;;;;;;5022754;28;20179;-75
2022/09/17 06:03:47;;;;;;;8.15;1.35;;;10.90;99.90;;;;;;5026206;28;20052;-78
2022/09/17 06:06:14;;;;;;;14.65;1.60;;;10.90;99.90;;;;;;5043281;28;20032;-79
2022/09/17 06:08:40;;;;;;;12.85;1.70;;;10.90;99.90;;;;;;5001845;28;20107;-78
2022/09/17 06:11:07;;;;;;;12.30;1.90;;;10.90;99.90;;;;;;5005344;28;20044;-76
2022/09/17 06:13:33;;;;;;;14.75;2.40;;;11.00;99.90;;;;;;5029624;28;20040;-80
2022/09/17 06:16:00;;;;;;;16.25;2.35;;;10.90;99.90;;;;;;5006503;28;20053;-77
2022/09/17 06:18:27;;;;;;;9.18;1.63;;;10.90;99.90;;;;;;5025700;28;20139;-78
2022/09/17 06:20:58;;;;;;;10.60;1.80;;;10.70;99.90;;;;;;5024929;28;20102;-78
2022/09/17 06:23:24;;;;;;;12.85;2.03;;;10.70;99.90;;;;;;5008930;28;20052;-77
2022/09/17 06:26:00;;;;;;;20.08;2.30;;;10.60;99.90;;;;;;5040561;28;20041;-79
2022/09/17 06:28:27;;;;;;;13.77;1.90;;;10.50;99.90;;;;;;5012038;28;20130;-80
2022/09/17 06:30:56;;;;;;;20.00;2.03;;;10.40;99.90;;;;;;5008225;28;20045;-78
2022/09/17 06:33:22;;;;;;;14.43;2.17;;;10.50;99.90;;;;;;5007133;28;20103;-76
2022/09/17 06:35:54;;;;;;;16.00;2.20;;;10.60;99.90;;;;;;5026725;28;21023;-78
2022/09/17 06:38:20;;;;;;;17.08;2.17;;;10.70;99.90;;;;;;5023869;28;20045;-78
2022/09/17 06:40:50;;;;;;;11.95;1.90;;;10.80;99.90;;;;;;5016976;28;20056;-79
2022/09/17 06:43:16;;;;;;;11.15;1.65;;;10.80;99.90;;;;;;5068499;28;20913;-78
2022/09/17 06:45:42;;;;;;;9.18;1.50;;;10.80;99.90;;;;;;5006835;28;20049;-79
2022/09/17 06:48:08;;;;;;;11.18;1.40;;;11.00;99.90;;;;;;5030116;28;20033;-78
2022/09/17 06:50:33;;;;;;;12.98;1.63;;;11.00;99.90;;;;;;5023571;28;20037;-79
2022/09/17 06:52:59;;;;;;;13.13;1.73;;;11.10;99.90;;;;;;5023088;28;20052;-78
2022/09/17 06:55:25;;;;;;;9.77;1.63;;;11.00;99.90;;;;;;5005606;28;20469;-77
2022/09/17 06:57:51;;;;;;;12.63;1.83;;;10.90;99.90;;;;;;5008456;28;20129;-77
2022/09/17 07:00:16;;;;;;;9.20;1.35;;;11.00;99.90;;;;;;5011117;28;20061;-79
2022/09/17 07:02:42;;;;;;;8.95;1.60;;;11.00;99.90;;;;;;5025166;28;20064;-77
2022/09/17 07:05:08;;;;;;;12.68;1.85;;;11.10;99.90;;;;;;5019503;28;20520;-79
2022/09/17 07:07:34;;;;;;;8.85;1.42;;;11.10;99.90;;;;;;5015672;28;20045;-78
2022/09/17 07:10:01;;;;;;;12.18;1.80;;;11.20;99.90;;;;;;5004856;28;20059;-77
2022/09/17 07:12:26;;;;;;;13.40;1.70;;;11.40;99.90;;;;;;5017819;28;20103;-78
2022/09/17 07:14:52;;;;;;;14.60;1.98;;;11.40;99.90;;;;;;5019647;28;20392;-77
2022/09/17 07:17:18;;;;;;;15.02;2.65;;;11.50;99.90;;;;;;5019248;28;20049;-79
2022/09/17 07:19:43;;;;;;;13.77;2.05;;;11.50;99.90;;;;;;5025464;28;20049;-77
2022/09/17 07:22:09;;;;;;;17.05;1.92;;;11.60;99.90;;;;;;5020224;28;20053;-76
2022/09/17 07:24:34;;;;;;;13.13;1.90;;;11.70;99.90;;;;;;5025124;28;20488;-78
2022/09/17 07:27:00;;;;;;;16.38;2.05;;;11.70;99.90;;;;;;5010723;28;20516;-78
2022/09/17 07:29:26;;;;;;;13.70;2.05;;;11.70;99.90;;;;;;5026936;28;20057;-78
2022/09/17 07:31:53;;;;;;;13.32;2.10;;;12.00;99.90;;;;;;5026073;28;20063;-77
2022/09/17 07:34:19;;;;;;;8.77;1.95;;;12.30;99.90;;;;;;5007263;28;20045;-77
2022/09/17 07:36:45;;;;;;;16.70;1.77;;;12.30;99.90;;;;;;5013670;28;20499;-77
2022/09/17 07:39:12;;;;;;;7.93;1.42;;;12.40;99.90;;;;;;5026649;28;20064;-78
2022/09/17 07:41:38;;;;;;;9.13;1.63;;;12.50;99.90;;;;;;5031975;28;20053;-79
2022/09/17 07:44:08;;;;;;;8.55;1.63;;;12.80;99.90;;;;;;5027313;28;20551;-78
2022/09/17 07:46:34;;;;;;;9.80;1.65;;;12.70;99.90;;;;;;5027506;28;20053;-79
2022/09/17 07:49:00;;;;;;;11.90;1.70;;;12.80;99.90;;;;;;5035218;28;20044;-76
2022/09/17 07:51:30;;;;;;;10.98;1.73;;;12.90;99.90;;;;;;5014859;28;20464;-76
2022/09/17 07:53:57;;;;;;;12.43;2.15;;;13.00;99.90;;;;;;5020582;28;20057;-76
2022/09/17 07:56:25;;;;;;;12.43;1.98;;;13.20;99.90;;;;;;5010126;28;20573;-77
2022/09/17 07:58:51;;;;;;;11.75;1.95;;;13.20;99.90;;;;;;5022085;28;20053;-77
2022/09/17 08:01:17;;;;;;;8.60;1.58;;;13.30;99.90;;;;;;5012844;28;20047;-78
2022/09/17 08:03:47;;;;;;;8.85;1.98;;;13.10;99.90;;;;;;5008887;28;20405;-79
2022/09/17 08:06:15;;;;;;;12.57;1.77;;;12.90;99.90;;;;;;5021286;28;20061;-78
2022/09/17 08:08:41;;;;;;;6.78;1.45;;;13.00;99.90;;;;;;5016272;28;20050;-79
2022/09/17 08:11:13;;;;;;;13.77;1.63;;;12.90;99.90;;;;;;5012026;28;20128;-80
2022/09/17 08:13:39;;;;;;;12.65;1.83;;;12.70;99.90;;;;;;5006108;28;20133;-80
2022/09/17 08:16:08;;;;;;;11.77;1.90;;;12.60;99.90;;;;;;5021316;28;20064;-76
2022/09/17 08:18:34;;;;;;;13.30;2.10;;;12.50;99.90;;;;;;5028477;28;20045;-77
2022/09/17 08:21:02;;;;;;;12.70;2.15;;;12.40;99.90;;;;;;5007570;28;20045;-81
2022/09/17 08:23:29;;;;;;;9.73;1.50;;;12.30;99.90;;;;;;5025301;28;20068;-76
2022/09/17 08:25:59;;;;;;;16.58;2.08;;;12.20;99.90;;;;;;5042607;28;20047;-76
2022/09/17 08:28:27;;;;;;;12.73;1.50;;;12.10;99.90;;;;;;5021896;28;20061;-79
2022/09/17 08:30:54;;;;;;;11.95;1.80;;;12.30;99.90;;;;;;5027919;28;20405;-80
2022/09/17 08:33:20;;;;;;;15.77;2.10;;;12.50;99.90;;;;;;5007366;28;21769;-79
2022/09/17 08:35:54;;;;;;;9.18;1.40;;;12.70;99.90;;;;;;5021016;28;20041;-77
2022/09/17 08:38:20;;;;;;;11.68;1.70;;;12.70;99.90;;;;;;5022266;28;20069;-80
2022/09/17 08:41:04;;;;;;;11.40;1.77;;;12.70;99.90;;;;;;5036284;28;20081;-77
2022/09/17 08:43:33;;;;;;;12.00;2.00;;;12.90;99.90;;;;;;5022608;28;20485;-76
2022/09/17 08:46:00;;;;;;;13.00;2.05;;;13.30;99.90;;;;;;5009612;28;20345;-77
2022/09/17 08:48:39;;;;;;;13.80;2.50;;;13.60;99.90;;;;;;5026296;28;20071;-78
2022/09/17 08:51:40;;;;;;;15.60;2.03;;;13.60;99.90;;;;;;5043271;28;20066;-79
2022/09/17 08:54:25;;;;;;;9.93;1.58;;;13.60;99.90;;;;;;5007805;28;20052;-77
2022/09/17 08:57:23;;;;;;;8.18;1.55;;;13.40;99.90;;;;;;5005804;28;20067;-78
2022/09/17 09:00:06;;;;;;;10.15;1.65;;;13.20;99.90;;;;;;5003195;28;20041;-77
2022/09/17 09:02:45;;;;;;;11.98;2.03;;;13.10;99.90;;;;;;5025235;28;20041;-79
2022/09/17 09:05:15;;;;;;;7.70;1.40;;;13.00;99.90;;;;;;5030326;28;20152;-78
2022/09/17 09:07:50;;;;;;;13.07;1.80;;;13.00;99.90;;;;;;5032038;28;20473;-79
2022/09/17 09:10:24;;;;;;;16.30;2.45;;;13.10;99.90;;;;;;5014112;28;20053;-79
2022/09/17 09:12:51;;;;;;;12.45;2.13;;;13.20;99.90;;;;;;5028789;28;20033;-77
2022/09/17 09:15:20;;;;;;;10.85;1.65;;;13.20;99.90;;;;;;5007281;28;20144;-77
2022/09/17 09:17:49;;;;;;;13.20;2.40;;;12.90;99.90;;;;;;5028099;28;20045;-77
2022/09/17 09:20:21;;;;;;;12.38;2.00;;;12.70;99.90;;;;;;5011779;28;20582;-80
2022/09/17 09:22:48;;;;;;;9.77;1.63;;;12.60;99.90;;;;;;5022763;28;20037;-79
2022/09/17 09:25:17;;;;;;;11.52;1.67;;;12.50;99.90;;;;;;5028034;28;20140;-76
2022/09/17 09:27:48;;;;;;;16.77;2.47;;;12.50;99.90;;;;;;5012968;28;20040;-75
2022/09/17 09:30:15;;;;;;;13.05;1.83;;;12.80;99.90;;;;;;5013187;28;20048;-80
2022/09/17 09:33:02;;;;;;;10.45;2.08;;;12.90;99.90;;;;;;5028192;28;20405;-78
2022/09/17 09:35:31;;;;;;;12.23;1.60;;;12.80;99.90;;;;;;5012327;28;20452;-77
2022/09/17 09:38:08;;;;;;;10.63;1.70;;;12.70;99.90;;;;;;5028588;28;20122;-78
2022/09/17 09:40:43;;;;;;;11.52;1.95;;;12.50;99.90;;;;;;5012999;28;20123;-79
2022/09/17 09:43:22;;;;;;;10.43;1.60;;;12.40;99.90;;;;;;5027879;28;20047;-80
2022/09/17 09:46:06;;;;;;;7.55;1.73;;;12.50;99.90;;;;;;5007458;28;20587;-77
2022/09/17 09:49:02;;;;;;;8.25;1.80;;;12.60;99.90;;;;;;5025650;28;20040;-80
2022/09/17 09:51:42;;;;;;;9.77;1.45;;;12.80;99.90;;;;;;5029511;28;20443;-77
2022/09/17 09:54:31;;;;;;;6.43;1.40;;;13.10;99.90;;;;;;5022550;28;20472;-78
2022/09/17 09:57:07;;;;;;;8.70;1.50;;;13.10;99.90;;;;;;5028514;28;20562;-79
2022/09/17 09:59:35;;;;;;;12.52;1.73;;;13.20;99.90;;;;;;5028832;28;20045;-77
2022/09/17 10:02:01;;;;;;;12.63;2.00;;;13.40;99.90;;;;;;5014687;28;20127;-78
2022/09/17 10:04:28;;;;;;;16.08;2.25;;;13.60;99.90;;;;;;5010826;28;20046;-80
2022/09/17 10:07:06;;;;;;;17.77;2.00;;;13.90;99.90;;;;;;5036601;28;20075;-77
2022/09/17 10:09:35;;;;;;;15.45;2.55;;;14.20;99.90;;;;;;5032200;28;20132;-76
2022/09/17 10:12:07;;;;;;;12.35;2.30;;;14.50;99.90;;;;;;5036817;28;20055;-78
2022/09/17 10:14:35;;;;;;;24.42;3.35;;;14.60;99.90;;;;;;5008357;28;20579;-78
2022/09/17 10:17:18;;;;;;;13.82;1.63;;;14.80;99.90;;;;;;4997971;28;20049;-79
2022/09/17 10:19:45;;;;;;;12.25;2.05;;;14.60;99.90;;;;;;5028345;28;20044;-77
2022/09/17 10:22:27;;;;;;;10.80;2.20;;;14.00;99.90;;;;;;5009428;28;20160;-78
2022/09/17 10:24:55;;;;;;;13.05;1.85;;;13.40;99.90;;;;;;5029090;28;20045;-76
2022/09/17 10:27:23;;;;;;;8.95;1.65;;;13.30;99.90;;;;;;5004444;28;20084;-78
2022/09/17 10:30:16;;;;;;;10.73;1.58;;;13.40;99.90;;;;;;5010579;28;20036;-77
2022/09/17 10:32:42;;;;;;;8.25;1.77;;;13.20;99.90;;;;;;4984683;28;20110;-76
2022/09/17 10:35:14;;;;;;;13.65;2.60;;;13.40;99.90;;;;;;5026728;28;20163;-77
2022/09/17 10:37:45;;;;;;;13.25;2.15;;;13.50;99.90;;;;;;5027342;28;20101;-79
2022/09/17 10:40:17;;;;;;;13.88;2.15;;;13.70;99.90;;;;;;5024477;28;20033;-78
2022/09/17 10:42:53;;;;;;;12.65;2.30;;;13.70;99.90;;;;;;5025699;28;20448;-80
2022/09/17 10:45:27;;;;;;;23.60;2.70;;;13.70;99.90;;;;;;5038003;28;20060;-78
2022/09/17 10:47:55;;;;;;;17.45;2.70;;;13.90;99.90;;;;;;5023067;28;20055;-78
2022/09/17 10:50:33;;;;;;;14.80;2.55;;;13.90;99.90;;;;;;5020234;28;20132;-79
2022/09/17 10:53:05;;;;;;;14.15;2.50;;;13.80;99.90;;;;;;5017558;28;20637;-78
2022/09/17 10:55:49;;;;;;;13.32;2.13;;;13.90;99.90;;;;;;4999777;28;20527;-76
2022/09/17 10:58:46;;;;;;;16.60;2.42;;;13.80;99.90;;;;;;5020407;28;20471;-79
2022/09/17 11:01:15;;;;;;;22.95;2.92;;;13.80;99.90;;;;;;5018599;28;20266;-77
2022/09/17 11:04:18;;;;;;;17.33;2.95;;;14.10;99.90;;;;;;5017870;28;20045;-78
2022/09/17 11:07:13;;;;;;;21.13;2.67;;;14.40;99.90;;;;;;5018600;28;20515;-80
2022/09/17 11:10:05;;;;;;;16.45;2.67;;;14.80;99.90;;;;;;5007835;28;20107;-79
2022/09/17 11:13:15;;;;;;;14.55;2.08;;;15.50;99.90;;;;;;5043038;28;20392;-80
2022/09/17 11:16:13;;;;;;;12.30;2.03;;;15.80;99.90;;;;;;5005964;28;20052;-81
2022/09/17 11:18:51;;;;;;;7.97;1.63;;;15.60;99.90;;;;;;5011566;28;20041;-77
2022/09/17 11:21:20;;;;;;;10.00;1.92;;;15.50;99.90;;;;;;5009511;28;20041;-79
2022/09/17 11:23:57;;;;;;;12.93;1.90;;;15.30;99.90;;;;;;5029949;28;20049;-79
2022/09/17 11:26:47;;;;;;;23.00;2.95;;;15.60;99.90;;;;;;5023981;28;20068;-80
2022/09/17 11:29:49;;;;;;;13.68;2.28;;;15.50;99.90;;;;;;5004774;28;20072;-80
2022/09/17 11:32:40;;;;;;;12.88;2.13;;;15.50;99.90;;;;;;5023190;28;20254;-77
2022/09/17 11:35:19;;;;;;;9.05;1.73;;;15.50;99.90;;;;;;5007546;28;20518;-78
2022/09/17 11:38:12;;;;;;;7.28;1.65;;;15.80;99.90;;;;;;5003780;28;20056;-78
2022/09/17 11:40:43;;;;;;;11.52;1.75;;;16.00;99.90;;;;;;5025085;28;20048;-77
2022/09/17 11:43:24;;;;;;;7.78;1.40;;;16.20;99.90;;;;;;5032748;28;20033;-80
2022/09/17 11:45:53;;;;;;;10.55;1.90;;;16.40;99.90;;;;;;5016932;28;20053;-78
2022/09/17 11:48:24;;;;;;;11.07;2.10;;;16.60;99.90;;;;;;5040884;28;20041;-79
2022/09/17 11:50:56;;;;;;;12.23;2.00;;;16.70;99.90;;;;;;5028188;28;20055;-78
2022/09/17 11:53:29;;;;;;;18.95;2.28;;;16.70;99.90;;;;;;5043861;28;20040;-79
2022/09/17 11:56:09;;;;;;;14.38;2.22;;;16.40;99.90;;;;;;5015105;28;20037;-80
2022/09/17 11:58:47;;;;;;;16.65;2.55;;;16.10;99.90;;;;;;5020595;28;20110;-77
2022/09/17 12:01:45;;;;;;;16.25;2.85;;;15.90;99.90;;;;;;5021872;28;20102;-79
2022/09/17 12:04:29;;;;;;;11.63;2.53;;;15.90;99.90;;;;;;5022407;28;20102;-78
2022/09/17 12:07:23;;;;;;;11.30;2.50;;;16.10;99.90;;;;;;5005591;28;20074;-79
2022/09/17 12:09:56;;;;;;;14.80;1.88;;;16.70;99.90;;;;;;5019393;28;20068;-75
2022/09/17 12:12:24;;;;;;;10.75;2.00;;;16.70;99.90;;;;;;5025525;28;20136;-78
2022/09/17 12:15:13;;;;;;;7.20;1.42;;;16.80;99.90;;;;;;5024391;28;20044;-77
2022/09/17 12:17:53;;;;;;;10.18;1.98;;;16.90;99.70;;;;;;5016920;28;20091;-78
2022/09/17 12:20:41;;;;;;;11.65;1.95;;;17.30;99.90;;;;;;5019460;28;20056;-75
2022/09/17 12:23:12;;;;;;;14.73;2.40;;;17.40;99.70;;;;;;5021394;28;20045;-77
2022/09/17 12:25:54;;;;;;;10.88;1.92;;;17.50;99.70;;;;;;5022658;28;20527;-78
2022/09/17 12:28:58;;;;;;;15.18;2.13;;;16.90;99.90;;;;;;5025144;28;20037;-79
2022/09/17 12:31:47;;;;;;;12.40;2.25;;;16.90;99.70;;;;;;4966132;28;20058;-78
2022/09/17 12:34:27;;;;;;;9.25;1.80;;;17.40;99.90;;;;;;4965616;28;20694;-79
2022/09/17 12:37:17;;;;;;;11.65;1.70;;;17.50;98.80;;;;;;4946519;28;20042;-75
2022/09/17 12:39:55;;;;;;;9.93;1.85;;;17.10;99.30;;;;;;4972598;28;20163;-77
2022/09/17 12:43:07;;;;;;;11.32;2.38;;;16.80;99.40;;;;;;4944133;28;20055;-77
2022/09/17 12:45:50;;;;;;;10.25;1.92;;;17.00;99.70;;;;;;4885122;29;20112;-77
2022/09/17 12:48:42;;;;;;;15.10;2.92;;;17.10;99.90;;;;;;4854658;29;20167;-76
2022/09/17 12:51:43;;;;;;;11.50;2.22;;;17.30;99.40;;;;;;4800269;29;21662;-73
2022/09/17 12:54:31;;;;;;;14.73;2.55;;;16.80;99.90;;;;;;4792010;29;20058;-76
2022/09/17 12:57:31;;;;;;;18.15;2.53;;;16.50;99.90;;;;;;4809514;29;20074;-78
2022/09/17 13:00:11;;;;;;;15.63;2.33;;;16.80;99.90;;;;;;4797968;29;20058;-76
2022/09/17 13:02:45;;;;;;;9.85;2.40;;;17.40;99.70;;;;;;4800293;29;20058;-77
2022/09/17 13:05:41;;;;;;;5.78;1.55;;;17.20;99.90;;;;;;4812722;29;20092;-77
2022/09/17 13:08:07;;;;;;;14.02;2.55;;;17.30;98.00;;;;;;4832838;29;20133;-76